Time;durP1;ratioP1;P1;durP2;ratioP2;P2;SDS_P1;SDS_P2;PMS_P1;PMS_P2;Temp;Humidity;BMP_temperature;BMP_pressure;BME280_temperature;BME280_humidity;BME280_pressure;Samples;Min_cycle;Max_cycle;Signal;HPM_P1;HPM_P2
2021/06/30 00:00:35;;;;;;;9.40;4.97;;;;;;;;;;8385576;27;20490;-70
2021/06/30 00:04:55;;;;;;;7.05;4.15;;;;;;;;;;8297947;27;1962339;-69
2021/06/30 00:09:18;;;;;;;8.05;4.30;;;;;;;;;;8420174;27;20890;-69
2021/06/30 00:13:40;;;;;;;7.55;4.50;;;;;;;;;;8418829;27;21137;-70
2021/06/30 00:18:02;;;;;;;6.28;3.90;;;;;;;;;;8386690;27;20575;-71
2021/06/30 00:22:24;;;;;;;8.55;4.75;;;;;;;;;;8385271;27;20494;-71
2021/06/30 00:26:43;;;;;;;5.17;4.30;;;;;;;;;;8377803;27;1244180;-71
2021/06/30 00:31:02;;;;;;;7.35;4.50;;;;;;;;;;8378606;27;1279045;-72
2021/06/30 00:35:23;;;;;;;9.32;4.55;;;;;;;;;;8419945;27;21092;-69
2021/06/30 00:39:44;;;;;;;6.80;4.75;;;;;;;;;;8320907;27;1952009;-69
2021/06/30 00:44:04;;;;;;;9.30;4.72;;;;;;;;;;8320865;27;1941591;-70
2021/06/30 00:48:26;;;;;;;16.40;4.53;;;;;;;;;;8352196;27;20515;-70
2021/06/30 00:52:49;;;;;;;9.65;4.40;;;;;;;;;;8388015;27;20436;-69
2021/06/30 00:57:12;;;;;;;5.22;3.67;;;;;;;;;;8385366;27;20879;-68
2021/06/30 01:01:33;;;;;;;15.00;3.80;;;;;;;;;;8385576;27;20493;-69
2021/06/30 01:05:54;;;;;;;8.10;3.40;;;;;;;;;;8419185;27;20922;-69
2021/06/30 01:10:16;;;;;;;8.23;3.67;;;;;;;;;;8386409;27;20459;-69
2021/06/30 01:14:38;;;;;;;6.75;3.10;;;;;;;;;;8384234;27;20509;-69
2021/06/30 01:18:59;;;;;;;10.52;2.28;;;;;;;;;;8419320;27;20617;-71
2021/06/30 01:23:17;;;;;;;3.72;1.98;;;;;;;;;;8376211;27;1245261;-71
2021/06/30 01:27:38;;;;;;;4.68;1.75;;;;;;;;;;8419880;27;20929;-70
2021/06/30 01:31:59;;;;;;;8.70;2.15;;;;;;;;;;8419814;27;20561;-69
2021/06/30 01:36:19;;;;;;;3.47;1.55;;;;;;;;;;8419161;27;20875;-69
2021/06/30 01:40:42;;;;;;;6.57;1.55;;;;;;;;;;8385583;27;20571;-69
2021/06/30 01:45:05;;;;;;;3.28;1.65;;;;;;;;;;8385314;27;20887;-69
2021/06/30 01:49:26;;;;;;;7.57;1.92;;;;;;;;;;8385290;27;20463;-73
2021/06/30 01:53:46;;;;;;;6.90;2.10;;;;;;;;;;8321535;27;1947647;-69
2021/06/30 01:58:06;;;;;;;2.22;1.58;;;;;;;;;;8453491;27;20835;-69
2021/06/30 02:13:56;;;;;;;4.55;2.10;;;;;;;;;;8304948;27;1742566;-70
2021/06/30 02:18:17;;;;;;;13.38;2.35;;;;;;;;;;8366766;27;20471;-68
2021/06/30 02:22:41;;;;;;;4.47;2.20;;;;;;;;;;8366283;27;20148;-68
2021/06/30 02:27:03;;;;;;;4.25;2.10;;;;;;;;;;8398915;27;21007;-69
2021/06/30 02:31:24;;;;;;;3.85;1.98;;;;;;;;;;8304313;27;1943147;-70
2021/06/30 02:35:41;;;;;;;9.93;2.38;;;;;;;;;;8357439;27;1244813;-69
2021/06/30 02:40:01;;;;;;;3.90;2.10;;;;;;;;;;8356038;27;1247532;-70
2021/06/30 02:44:22;;;;;;;4.13;2.20;;;;;;;;;;8399395;27;21034;-69
2021/06/30 02:48:43;;;;;;;4.78;2.33;;;;;;;;;;8399294;27;20845;-70
2021/06/30 02:53:01;;;;;;;4.60;2.17;;;;;;;;;;8362211;27;1246574;-69
2021/06/30 02:57:22;;;;;;;7.38;2.70;;;;;;;;;;8401339;27;21089;-71
2021/06/30 03:01:42;;;;;;;3.60;2.67;;;;;;;;;;8301729;27;1957791;-72
2021/06/30 03:06:03;;;;;;;7.00;2.60;;;;;;;;;;8402329;27;20613;-70
2021/06/30 03:10:24;;;;;;;6.45;2.20;;;;;;;;;;8402174;27;21213;-68
2021/06/30 03:14:46;;;;;;;6.95;2.22;;;;;;;;;;8369888;27;20855;-70
2021/06/30 03:19:07;;;;;;;4.82;2.28;;;;;;;;;;8402260;27;20868;-69
2021/06/30 03:23:29;;;;;;;7.57;2.40;;;;;;;;;;8368639;27;20620;-68
2021/06/30 03:27:49;;;;;;;4.95;2.38;;;;;;;;;;8304760;27;1927078;-70
2021/06/30 03:32:10;;;;;;;4.32;2.40;;;;;;;;;;8401911;27;21112;-68
2021/06/30 03:36:29;;;;;;;5.15;2.88;;;;;;;;;;8356423;27;1239774;-69
2021/06/30 03:40:49;;;;;;;6.57;3.25;;;;;;;;;;8301880;27;1936471;-69
2021/06/30 03:45:11;;;;;;;4.18;2.70;;;;;;;;;;8399072;27;20864;-69
2021/06/30 03:49:32;;;;;;;4.60;2.90;;;;;;;;;;8332800;27;20214;-70
2021/06/30 03:53:53;;;;;;;10.70;2.58;;;;;;;;;;8301215;27;1935919;-70
2021/06/30 03:58:15;;;;;;;9.43;2.92;;;;;;;;;;8365862;27;20718;-69
2021/06/30 04:02:34;;;;;;;5.50;2.88;;;;;;;;;;8357481;27;1246773;-68
2021/06/30 04:06:53;;;;;;;5.85;3.10;;;;;;;;;;8356880;27;1249217;-68
2021/06/30 04:11:17;;;;;;;6.30;3.17;;;;;;;;;;8365740;27;20729;-68
2021/06/30 04:15:39;;;;;;;7.82;3.00;;;;;;;;;;8399086;27;20903;-70
2021/06/30 04:20:10;;;;;;;4.85;3.03;;;;;;;;;;8365050;27;20513;-69
2021/06/30 04:24:32;;;;;;;4.20;3.50;;;;;;;;;;8399126;27;21127;-68
2021/06/30 04:28:54;;;;;;;6.75;3.38;;;;;;;;;;8365423;27;20497;-69
2021/06/30 04:33:14;;;;;;;6.43;3.47;;;;;;;;;;8300620;27;1936474;-69
2021/06/30 04:37:35;;;;;;;7.75;3.90;;;;;;;;;;8402742;27;20887;-68
2021/06/30 04:41:57;;;;;;;5.82;3.90;;;;;;;;;;8367368;27;20517;-71
2021/06/30 04:46:18;;;;;;;10.40;3.85;;;;;;;;;;8400832;27;21100;-68
2021/06/30 04:50:40;;;;;;;7.13;4.05;;;;;;;;;;8367398;27;21277;-68
2021/06/30 04:55:03;;;;;;;5.13;3.70;;;;;;;;;;8368308;27;20467;-72
2021/06/30 04:59:25;;;;;;;5.75;3.80;;;;;;;;;;8367134;27;21225;-69
2021/06/30 05:03:40;;;;;;;9.05;4.30;;;;;;;;;;8401064;27;21056;-68
2021/06/30 05:08:02;;;;;;;10.57;3.70;;;;;;;;;;8400567;27;21051;-71
2021/06/30 05:12:23;;;;;;;7.13;4.03;;;;;;;;;;8367048;27;20480;-68
2021/06/30 05:16:45;;;;;;;6.72;3.50;;;;;;;;;;8387301;27;20612;-68
2021/06/30 05:21:06;;;;;;;9.30;4.20;;;;;;;;;;8419874;27;21063;-68
2021/06/30 05:25:28;;;;;;;10.27;4.38;;;;;;;;;;8388219;27;20496;-68
2021/06/30 05:29:51;;;;;;;5.20;3.40;;;;;;;;;;8386295;27;20644;-68
2021/06/30 05:34:11;;;;;;;4.13;3.03;;;;;;;;;;8322069;27;1942046;-68
2021/06/30 05:38:29;;;;;;;8.20;3.08;;;;;;;;;;8378608;27;1248703;-68
2021/06/30 05:42:51;;;;;;;8.07;3.33;;;;;;;;;;8421765;27;21026;-68
2021/06/30 05:47:13;;;;;;;7.78;2.55;;;;;;;;;;8385852;27;20567;-68
2021/06/30 05:51:35;;;;;;;5.28;3.22;;;;;;;;;;8385872;27;20152;-68
2021/06/30 05:55:57;;;;;;;7.53;3.00;;;;;;;;;;8386106;27;20559;-69
2021/06/30 06:00:22;;;;;;;6.30;2.50;;;;;;;;;;8385970;27;20633;-69
2021/06/30 06:04:45;;;;;;;4.18;2.60;;;;;;;;;;8419473;27;20817;-69
2021/06/30 06:09:05;;;;;;;3.95;2.58;;;;;;;;;;8321634;27;1942615;-68
2021/06/30 06:13:26;;;;;;;5.15;2.55;;;;;;;;;;8419741;27;20876;-69
2021/06/30 06:17:48;;;;;;;4.03;2.45;;;;;;;;;;8385693;27;20640;-69
2021/06/30 06:22:07;;;;;;;2.92;1.98;;;;;;;;;;8378500;27;1260058;-70
2021/06/30 06:26:41;;;;;;;5.38;3.20;;;;;;;;;;8421479;27;20864;-70
2021/06/30 06:31:05;;;;;;;6.88;2.65;;;;;;;;;;8419632;27;20626;-70
2021/06/30 06:35:27;;;;;;;9.13;2.15;;;;;;;;;;8419715;27;20580;-69
2021/06/30 06:39:48;;;;;;;8.25;2.78;;;;;;;;;;8419405;27;20914;-70
2021/06/30 06:44:10;;;;;;;7.00;2.38;;;;;;;;;;8386172;27;20221;-69
2021/06/30 06:48:32;;;;;;;9.23;2.72;;;;;;;;;;8386758;27;20459;-69
2021/06/30 06:52:53;;;;;;;18.95;4.10;;;;;;;;;;8455575;27;20543;-71
2021/06/30 06:57:13;;;;;;;7.30;2.30;;;;;;;;;;8422874;27;20581;-69
2021/06/30 07:01:35;;;;;;;5.10;1.90;;;;;;;;;;8385941;27;20521;-70
2021/06/30 07:05:58;;;;;;;6.95;1.17;;;;;;;;;;8386051;27;20485;-71
2021/06/30 07:10:18;;;;;;;4.18;1.40;;;;;;;;;;8419120;27;21128;-69
2021/06/30 07:14:38;;;;;;;9.45;2.05;;;;;;;;;;8320294;27;1953251;-70
2021/06/30 07:18:59;;;;;;;2.75;1.75;;;;;;;;;;8422097;27;20890;-70
2021/06/30 07:23:22;;;;;;;3.53;1.50;;;;;;;;;;8385931;27;21039;-69
2021/06/30 07:27:42;;;;;;;3.83;1.20;;;;;;;;;;8421249;27;20553;-70
2021/06/30 07:32:03;;;;;;;2.63;1.17;;;;;;;;;;8417929;27;20872;-69
2021/06/30 07:36:23;;;;;;;1.95;1.08;;;;;;;;;;8320664;27;1945864;-70
2021/06/30 07:40:42;;;;;;;3.17;0.98;;;;;;;;;;8376209;27;1246694;-71
2021/06/30 07:45:09;;;;;;;4.35;1.20;;;;;;;;;;8384837;27;20624;-69
2021/06/30 07:49:23;;;;;;;2.25;1.20;;;;;;;;;;8377199;27;1258451;-69
2021/06/30 07:53:40;;;;;;;2.38;1.10;;;;;;;;;;8375005;27;1276841;-69
2021/06/30 07:57:57;;;;;;;2.65;1.00;;;;;;;;;;8420360;27;20613;-69
2021/06/30 08:02:56;;;;;;;3.22;1.10;;;;;;;;;;8421734;27;21059;-69
2021/06/30 08:07:12;;;;;;;1.65;1.00;;;;;;;;;;8418845;27;20873;-70
2021/06/30 08:11:26;;;;;;;1.77;0.93;;;;;;;;;;8377513;27;1256020;-71
2021/06/30 08:15:42;;;;;;;2.22;0.90;;;;;;;;;;8420160;27;21120;-71
2021/06/30 08:19:59;;;;;;;2.45;1.00;;;;;;;;;;8318280;27;20976;-71
2021/06/30 08:24:15;;;;;;;1.60;1.00;;;;;;;;;;8419932;27;21092;-70
2021/06/30 08:28:31;;;;;;;5.22;1.92;;;;;;;;;;8377676;27;1251924;-71
2021/06/30 08:32:46;;;;;;;2.30;1.20;;;;;;;;;;8378995;27;1260297;-71
2021/06/30 08:37:01;;;;;;;3.10;1.77;;;;;;;;;;8377801;27;1257852;-69
2021/06/30 08:41:18;;;;;;;2.25;1.38;;;;;;;;;;8376111;27;1275714;-70
2021/06/30 08:45:36;;;;;;;2.60;1.20;;;;;;;;;;8419620;27;21043;-72
2021/06/30 08:49:53;;;;;;;3.05;1.10;;;;;;;;;;8419740;27;21043;-70
2021/06/30 08:54:13;;;;;;;1.85;1.05;;;;;;;;;;8421456;27;20878;-70
2021/06/30 08:58:28;;;;;;;2.83;1.20;;;;;;;;;;8366436;27;1555692;-70
2021/06/30 09:02:49;;;;;;;6.30;1.80;;;;;;;;;;8419090;27;21134;-71
2021/06/30 09:07:05;;;;;;;2.55;1.00;;;;;;;;;;8419226;27;20630;-70
2021/06/30 09:11:24;;;;;;;3.92;1.08;;;;;;;;;;8379528;27;1252792;-71
2021/06/30 09:15:41;;;;;;;6.93;1.20;;;;;;;;;;8419489;27;21036;-70
2021/06/30 09:20:08;;;;;;;4.35;1.00;;;;;;;;;;8376912;27;1252205;-70
2021/06/30 09:24:25;;;;;;;21.98;1.42;;;;;;;;;;8419186;27;20881;-70
2021/06/30 09:28:43;;;;;;;3.30;0.87;;;;;;;;;;8376660;27;1258620;-70
2021/06/30 09:33:06;;;;;;;3.85;1.17;;;;;;;;;;8385535;27;20148;-70
2021/06/30 09:37:29;;;;;;;3.58;1.15;;;;;;;;;;8419968;27;20554;-69
2021/06/30 09:41:49;;;;;;;2.85;1.25;;;;;;;;;;8421103;27;20841;-69
2021/06/30 09:46:19;;;;;;;1.02;0.63;;;;;;;;;;8377234;27;1249223;-70
2021/06/30 09:50:41;;;;;;;1.70;0.80;;;;;;;;;;8369179;28;20374;-71
2021/06/30 09:54:56;;;;;;;3.60;1.00;;;;;;;;;;8381817;27;1248930;-70
2021/06/30 09:59:10;;;;;;;2.08;0.95;;;;;;;;;;8379590;27;1255018;-74
2021/06/30 10:03:39;;;;;;;2.33;0.90;;;;;;;;;;8420466;27;20922;-69
2021/06/30 10:08:17;;;;;;;5.00;0.85;;;;;;;;;;8419585;27;21063;-69
2021/06/30 10:12:34;;;;;;;4.50;1.00;;;;;;;;;;8420433;27;20917;-71
2021/06/30 10:16:51;;;;;;;3.50;1.65;;;;;;;;;;8420179;27;21103;-70
2021/06/30 10:21:08;;;;;;;3.47;1.00;;;;;;;;;;8421128;27;20876;-70
2021/06/30 10:25:22;;;;;;;6.82;1.10;;;;;;;;;;8378071;27;1259221;-70
2021/06/30 10:29:45;;;;;;;1.90;0.68;;;;;;;;;;8418043;27;20613;-71
2021/06/30 10:34:13;;;;;;;1.73;0.70;;;;;;;;;;8421555;27;20830;-71
2021/06/30 10:38:55;;;;;;;9.20;1.80;;;;;;;;;;8422166;27;20902;-71
2021/06/30 10:43:16;;;;;;;2.50;0.77;;;;;;;;;;8421441;27;20573;-70
2021/06/30 10:47:50;;;;;;;4.15;1.00;;;;;;;;;;8419756;27;20937;-70
2021/06/30 10:52:07;;;;;;;3.90;1.10;;;;;;;;;;8419307;27;21051;-70
2021/06/30 10:56:33;;;;;;;3.88;1.23;;;;;;;;;;8419062;27;21083;-70
2021/06/30 11:00:58;;;;;;;3.25;1.25;;;;;;;;;;8385264;27;20900;-71
2021/06/30 11:05:15;;;;;;;2.92;0.90;;;;;;;;;;8420524;27;21039;-70
2021/06/30 11:09:29;;;;;;;1.77;0.80;;;;;;;;;;8376980;27;1248366;-72
2021/06/30 11:13:59;;;;;;;4.22;1.23;;;;;;;;;;8419384;27;20894;-71
2021/06/30 11:18:13;;;;;;;3.22;1.00;;;;;;;;;;8376960;27;1261472;-71
2021/06/30 11:22:29;;;;;;;2.42;1.27;;;;;;;;;;8419350;27;21071;-70
2021/06/30 11:26:46;;;;;;;4.55;1.05;;;;;;;;;;8419438;27;20876;-71
2021/06/30 11:31:27;;;;;;;3.67;1.00;;;;;;;;;;8418611;27;20922;-72
2021/06/30 11:35:48;;;;;;;3.20;0.82;;;;;;;;;;8419460;27;20549;-70
2021/06/30 11:40:12;;;;;;;2.03;0.90;;;;;;;;;;8420501;27;21123;-70
2021/06/30 11:44:38;;;;;;;4.32;1.23;;;;;;;;;;8377386;27;1249811;-71
2021/06/30 11:48:54;;;;;;;3.40;1.10;;;;;;;;;;8419477;27;21120;-71
2021/06/30 11:53:12;;;;;;;5.57;1.08;;;;;;;;;;8420435;27;20558;-70
2021/06/30 11:57:30;;;;;;;1.98;0.90;;;;;;;;;;8422126;27;20820;-70
2021/06/30 12:01:43;;;;;;;4.55;1.55;;;;;;;;;;8377446;27;1260192;-70
2021/06/30 12:06:00;;;;;;;3.50;1.40;;;;;;;;;;8419764;27;21121;-69
2021/06/30 12:10:17;;;;;;;2.22;1.00;;;;;;;;;;8420411;27;21119;-69
2021/06/30 12:14:46;;;;;;;2.72;1.08;;;;;;;;;;8420310;27;20853;-70
2021/06/30 12:19:12;;;;;;;3.05;0.93;;;;;;;;;;8419496;27;21160;-69
2021/06/30 12:23:29;;;;;;;6.38;1.10;;;;;;;;;;8420361;27;20841;-70
2021/06/30 12:27:47;;;;;;;2.30;0.80;;;;;;;;;;8377465;27;1254097;-68
2021/06/30 12:32:04;;;;;;;2.83;1.00;;;;;;;;;;8379394;27;1259292;-71
2021/06/30 12:36:23;;;;;;;3.45;1.02;;;;;;;;;;8420086;27;20882;-70
2021/06/30 12:40:39;;;;;;;1.23;0.80;;;;;;;;;;8420176;27;20906;-70
2021/06/30 12:45:00;;;;;;;1.40;0.77;;;;;;;;;;8377286;27;1258760;-71
2021/06/30 12:49:18;;;;;;;1.60;0.98;;;;;;;;;;8420298;27;20822;-70
2021/06/30 12:53:38;;;;;;;3.35;0.98;;;;;;;;;;8421456;27;20887;-70
2021/06/30 12:58:00;;;;;;;1.77;0.90;;;;;;;;;;8421162;27;20622;-70
2021/06/30 13:02:17;;;;;;;3.80;1.05;;;;;;;;;;8387231;27;20866;-70
2021/06/30 13:06:50;;;;;;;3.92;1.10;;;;;;;;;;8256644;27;4670369;-70
2021/06/30 13:11:17;;;;;;;4.87;1.60;;;;;;;;;;8376505;27;1273126;-70
2021/06/30 13:15:32;;;;;;;1.95;1.20;;;;;;;;;;8376465;27;1267520;-70
2021/06/30 13:19:51;;;;;;;4.07;1.38;;;;;;;;;;8420928;27;20860;-71
2021/06/30 13:24:28;;;;;;;5.00;1.70;;;;;;;;;;8420379;27;21048;-70
2021/06/30 13:29:20;;;;;;;9.07;3.20;;;;;;;;;;8419843;27;20876;-70
2021/06/30 13:38:16;;;;;;;7.90;2.30;;;;;;;;;;8376318;27;1262712;-71
2021/06/30 13:42:36;;;;;;;5.18;1.90;;;;;;;;;;8419280;27;21063;-70
2021/06/30 13:46:55;;;;;;;5.50;1.63;;;;;;;;;;8422051;27;21104;-70
2021/06/30 13:51:15;;;;;;;4.95;1.50;;;;;;;;;;8419249;27;21112;-70
2021/06/30 13:55:30;;;;;;;6.93;1.67;;;;;;;;;;8378679;27;1249097;-72
2021/06/30 13:59:44;;;;;;;2.20;1.52;;;;;;;;;;8376390;27;1283512;-69
2021/06/30 14:04:02;;;;;;;3.58;1.35;;;;;;;;;;8367024;27;1532542;-71
2021/06/30 14:08:16;;;;;;;2.25;1.10;;;;;;;;;;8379389;27;1270190;-69
2021/06/30 14:12:32;;;;;;;2.10;1.05;;;;;;;;;;8419606;27;20850;-70
2021/06/30 14:16:51;;;;;;;4.30;0.85;;;;;;;;;;8420321;27;21052;-71
2021/06/30 14:21:08;;;;;;;3.25;1.15;;;;;;;;;;8420170;27;20864;-71
2021/06/30 14:25:24;;;;;;;3.72;1.30;;;;;;;;;;8377338;27;1284323;-69
2021/06/30 14:29:41;;;;;;;3.83;0.80;;;;;;;;;;8419739;27;21280;-69
2021/06/30 14:33:58;;;;;;;4.25;1.02;;;;;;;;;;8417767;27;20933;-71
2021/06/30 14:38:15;;;;;;;5.97;1.50;;;;;;;;;;8377189;27;1273168;-71
2021/06/30 14:42:32;;;;;;;2.25;1.30;;;;;;;;;;8419443;27;21051;-70
2021/06/30 14:46:47;;;;;;;3.17;0.85;;;;;;;;;;8377787;27;1258720;-70
2021/06/30 14:51:03;;;;;;;4.32;1.13;;;;;;;;;;8419586;27;20880;-69
2021/06/30 14:55:22;;;;;;;3.13;1.40;;;;;;;;;;8420111;27;20955;-70
2021/06/30 14:59:40;;;;;;;1.25;1.00;;;;;;;;;;8420526;27;20868;-70
2021/06/30 15:03:55;;;;;;;2.85;1.23;;;;;;;;;;8420264;27;21032;-70
2021/06/30 15:08:13;;;;;;;2.25;1.40;;;;;;;;;;8419943;27;21071;-70
2021/06/30 15:12:29;;;;;;;7.05;1.70;;;;;;;;;;8422486;27;20630;-69
2021/06/30 15:16:46;;;;;;;3.65;1.40;;;;;;;;;;8420245;27;21108;-70
2021/06/30 15:21:02;;;;;;;4.28;1.30;;;;;;;;;;8419808;27;21070;-70
2021/06/30 15:25:18;;;;;;;1.88;1.00;;;;;;;;;;8376701;27;1264300;-70
2021/06/30 15:29:34;;;;;;;2.75;1.20;;;;;;;;;;8419172;27;20561;-71
2021/06/30 15:33:49;;;;;;;3.45;1.05;;;;;;;;;;8419098;27;21135;-70
2021/06/30 15:38:03;;;;;;;1.48;1.10;;;;;;;;;;8378420;27;1284249;-71
2021/06/30 15:42:21;;;;;;;1.42;1.02;;;;;;;;;;8422016;27;20910;-70
2021/06/30 15:46:37;;;;;;;6.40;1.20;;;;;;;;;;8377990;27;1258623;-69
2021/06/30 15:50:51;;;;;;;3.35;1.83;;;;;;;;;;8376314;27;1267851;-69
2021/06/30 15:55:08;;;;;;;3.15;1.17;;;;;;;;;;8419078;27;20561;-70
2021/06/30 15:59:27;;;;;;;3.25;1.33;;;;;;;;;;8316415;27;3058242;-70
2021/06/30 16:03:42;;;;;;;3.67;1.00;;;;;;;;;;8387485;27;20981;-69
2021/06/30 16:07:59;;;;;;;2.45;1.20;;;;;;;;;;8419625;27;20818;-70
2021/06/30 16:12:15;;;;;;;7.70;1.35;;;;;;;;;;8419370;27;21148;-70
2021/06/30 16:16:33;;;;;;;1.75;1.30;;;;;;;;;;8419076;27;21127;-70
2021/06/30 16:20:48;;;;;;;2.88;1.27;;;;;;;;;;8420657;27;20553;-70
2021/06/30 16:25:07;;;;;;;3.95;1.30;;;;;;;;;;8419698;27;20557;-70
2021/06/30 16:29:25;;;;;;;2.53;1.10;;;;;;;;;;8419877;27;20905;-69
2021/06/30 16:33:42;;;;;;;4.05;1.20;;;;;;;;;;8419026;27;21124;-69
2021/06/30 16:37:57;;;;;;;3.95;1.40;;;;;;;;;;8377111;27;1251391;-70
2021/06/30 16:42:13;;;;;;;3.17;1.40;;;;;;;;;;8419318;27;21075;-70
2021/06/30 16:46:29;;;;;;;4.03;2.10;;;;;;;;;;8419182;27;20626;-69
2021/06/30 16:50:45;;;;;;;5.35;1.80;;;;;;;;;;8419633;27;20618;-70
2021/06/30 16:55:00;;;;;;;7.65;1.85;;;;;;;;;;8379682;27;1261933;-70
2021/06/30 16:59:17;;;;;;;1.83;1.20;;;;;;;;;;8419333;27;21132;-70
2021/06/30 17:03:32;;;;;;;4.22;1.77;;;;;;;;;;8376526;27;1277086;-70
2021/06/30 17:07:48;;;;;;;3.72;1.33;;;;;;;;;;8376669;27;1313991;-69
2021/06/30 17:12:06;;;;;;;2.17;1.60;;;;;;;;;;8420755;27;20848;-70
2021/06/30 17:16:23;;;;;;;4.57;2.25;;;;;;;;;;8419697;27;20845;-69
2021/06/30 17:20:40;;;;;;;2.75;1.90;;;;;;;;;;8419275;27;20921;-69
2021/06/30 17:24:56;;;;;;;6.65;1.90;;;;;;;;;;8419110;27;21117;-70
2021/06/30 17:29:12;;;;;;;4.53;1.80;;;;;;;;;;8376431;27;1279714;-70
2021/06/30 17:33:26;;;;;;;4.43;1.75;;;;;;;;;;8377400;27;1271476;-70
2021/06/30 17:37:42;;;;;;;5.28;1.77;;;;;;;;;;8419155;27;21013;-70
2021/06/30 17:41:59;;;;;;;3.80;1.60;;;;;;;;;;8419616;27;20557;-71
2021/06/30 17:46:18;;;;;;;2.80;1.50;;;;;;;;;;8421390;27;20893;-70
2021/06/30 17:50:34;;;;;;;3.88;1.50;;;;;;;;;;8421060;27;21116;-70
2021/06/30 17:54:52;;;;;;;3.40;1.42;;;;;;;;;;8420832;27;21039;-70
2021/06/30 17:59:09;;;;;;;2.42;1.60;;;;;;;;;;8419451;27;20549;-69
2021/06/30 18:03:25;;;;;;;7.28;2.05;;;;;;;;;;8419778;27;20561;-69
2021/06/30 18:07:39;;;;;;;4.47;2.30;;;;;;;;;;8378079;27;1294895;-70
2021/06/30 18:11:57;;;;;;;2.40;1.90;;;;;;;;;;8421260;27;20613;-69
2021/06/30 18:16:14;;;;;;;3.28;2.05;;;;;;;;;;8418952;27;20882;-70
2021/06/30 18:20:29;;;;;;;4.13;1.83;;;;;;;;;;8378583;27;1249347;-70
2021/06/30 18:24:43;;;;;;;3.38;2.15;;;;;;;;;;8377572;27;1277130;-71
2021/06/30 18:29:00;;;;;;;5.57;2.20;;;;;;;;;;8419772;27;20561;-70
2021/06/30 18:33:17;;;;;;;7.45;1.95;;;;;;;;;;8420778;27;20894;-69
2021/06/30 18:37:33;;;;;;;4.18;2.45;;;;;;;;;;8376844;27;1267671;-70
2021/06/30 18:41:50;;;;;;;3.13;2.28;;;;;;;;;;8386932;27;21122;-71
2021/06/30 18:46:10;;;;;;;2.75;2.38;;;;;;;;;;8420525;27;20550;-69
2021/06/30 18:50:25;;;;;;;2.92;2.30;;;;;;;;;;8419796;27;20887;-69
2021/06/30 18:54:44;;;;;;;3.15;1.92;;;;;;;;;;8419331;27;20860;-68
2021/06/30 18:59:01;;;;;;;2.10;1.77;;;;;;;;;;8420204;27;21288;-69
2021/06/30 19:03:17;;;;;;;2.92;1.70;;;;;;;;;;8421328;27;20880;-68
2021/06/30 19:07:37;;;;;;;5.05;2.10;;;;;;;;;;8419513;27;20833;-69
2021/06/30 19:11:54;;;;;;;3.90;2.17;;;;;;;;;;8417363;27;20716;-69
2021/06/30 19:16:15;;;;;;;3.78;2.70;;;;;;;;;;8420938;27;20894;-70
2021/06/30 19:20:32;;;;;;;11.77;8.90;;;;;;;;;;8419576;27;21012;-70
2021/06/30 19:24:51;;;;;;;4.85;2.20;;;;;;;;;;8419553;27;21055;-69
2021/06/30 19:29:09;;;;;;;4.93;3.05;;;;;;;;;;8419498;27;20897;-69
2021/06/30 19:33:23;;;;;;;8.40;4.63;;;;;;;;;;8377263;27;1259895;-69
2021/06/30 19:37:38;;;;;;;7.85;5.05;;;;;;;;;;8376500;27;1278670;-69
2021/06/30 19:41:59;;;;;;;4.45;1.80;;;;;;;;;;8418371;27;20614;-69
2021/06/30 19:46:16;;;;;;;4.82;1.90;;;;;;;;;;8418880;27;20889;-69
2021/06/30 19:50:33;;;;;;;3.53;1.88;;;;;;;;;;8420351;27;20561;-69
2021/06/30 19:54:47;;;;;;;4.07;2.00;;;;;;;;;;8379330;27;1264129;-69
2021/06/30 19:59:01;;;;;;;2.60;1.88;;;;;;;;;;8377003;27;1275088;-68
2021/06/30 20:03:18;;;;;;;5.28;2.40;;;;;;;;;;8419862;27;20612;-69
2021/06/30 20:07:34;;;;;;;8.15;2.38;;;;;;;;;;8418998;27;21074;-69
2021/06/30 20:11:52;;;;;;;4.78;2.00;;;;;;;;;;8418712;27;20867;-70
2021/06/30 20:16:09;;;;;;;4.95;2.22;;;;;;;;;;8418072;27;21043;-68
2021/06/30 20:20:22;;;;;;;5.60;2.95;;;;;;;;;;8377629;27;1262180;-69
2021/06/30 20:24:38;;;;;;;4.47;3.05;;;;;;;;;;8419173;27;20845;-68
2021/06/30 20:28:56;;;;;;;6.53;2.70;;;;;;;;;;8410298;27;20850;-70
2021/06/30 20:33:13;;;;;;;3.85;2.47;;;;;;;;;;8420913;27;21054;-69
2021/06/30 20:37:34;;;;;;;4.63;2.33;;;;;;;;;;8419827;27;20810;-71
2021/06/30 20:41:51;;;;;;;5.53;2.45;;;;;;;;;;8419844;27;20867;-68
2021/06/30 20:46:07;;;;;;;3.75;2.53;;;;;;;;;;8419807;27;20612;-69
2021/06/30 20:50:26;;;;;;;7.22;2.20;;;;;;;;;;8419829;27;20876;-69
2021/06/30 20:54:41;;;;;;;4.28;2.30;;;;;;;;;;8378111;27;1269248;-69
2021/06/30 20:58:55;;;;;;;5.05;1.95;;;;;;;;;;8376994;27;1267076;-69
2021/06/30 21:03:10;;;;;;;2.77;2.07;;;;;;;;;;8378073;27;1270279;-69
2021/06/30 21:07:26;;;;;;;5.28;1.92;;;;;;;;;;8420214;27;20557;-68
2021/06/30 21:11:31;;;;;;;6.05;2.55;;;;;;;;;;8385752;28;20370;-69
2021/06/30 21:15:49;;;;;;;6.22;2.53;;;;;;;;;;8419555;27;21119;-68
2021/06/30 21:20:13;;;;;;;5.32;2.45;;;;;;;;;;8421530;27;20864;-69
2021/06/30 21:24:29;;;;;;;4.75;2.65;;;;;;;;;;8419535;27;20905;-69
2021/06/30 21:28:45;;;;;;;7.13;2.88;;;;;;;;;;8419798;27;20630;-68
2021/06/30 21:33:01;;;;;;;4.28;2.78;;;;;;;;;;8419584;27;21047;-69
2021/06/30 21:37:16;;;;;;;7.63;2.47;;;;;;;;;;8420049;27;20837;-69
2021/06/30 21:41:32;;;;;;;5.05;2.20;;;;;;;;;;8419768;27;20973;-69
2021/06/30 21:45:53;;;;;;;8.25;2.50;;;;;;;;;;8419978;27;20874;-70
2021/06/30 21:50:10;;;;;;;8.32;3.15;;;;;;;;;;8377117;27;1258573;-68
2021/06/30 21:54:26;;;;;;;6.85;2.40;;;;;;;;;;8419648;27;21107;-68
2021/06/30 21:58:42;;;;;;;2.88;2.38;;;;;;;;;;8419882;27;20902;-68
2021/06/30 22:03:00;;;;;;;3.50;2.65;;;;;;;;;;8419979;27;20888;-68
2021/06/30 22:07:17;;;;;;;3.20;2.58;;;;;;;;;;8421126;27;20829;-69
2021/06/30 22:11:33;;;;;;;5.05;3.00;;;;;;;;;;8419692;27;20853;-73
2021/06/30 22:15:50;;;;;;;4.07;3.00;;;;;;;;;;8422687;27;20917;-69
2021/06/30 22:20:10;;;;;;;4.28;2.60;;;;;;;;;;8379061;27;1248805;-69
2021/06/30 22:24:26;;;;;;;4.53;2.78;;;;;;;;;;8386529;27;20621;-68
2021/06/30 22:28:44;;;;;;;4.95;2.72;;;;;;;;;;8419333;27;20825;-69
2021/06/30 22:33:00;;;;;;;3.30;2.40;;;;;;;;;;8419844;27;20943;-68
2021/06/30 22:37:17;;;;;;;6.47;2.50;;;;;;;;;;8421982;27;21036;-68
2021/06/30 22:41:32;;;;;;;5.75;2.90;;;;;;;;;;8378727;27;1256172;-69
2021/06/30 22:45:46;;;;;;;2.95;2.65;;;;;;;;;;8377217;27;1255627;-68
2021/06/30 22:50:01;;;;;;;2.58;2.30;;;;;;;;;;8377089;27;1254675;-68
2021/06/30 22:54:17;;;;;;;2.60;2.20;;;;;;;;;;8419767;27;20864;-69
2021/06/30 22:58:34;;;;;;;2.83;2.40;;;;;;;;;;8420249;27;20907;-68
2021/06/30 23:02:50;;;;;;;6.82;2.40;;;;;;;;;;8376878;27;1284797;-69
2021/06/30 23:07:08;;;;;;;4.50;2.25;;;;;;;;;;8420589;27;21111;-69
2021/06/30 23:11:23;;;;;;;3.10;2.13;;;;;;;;;;8377185;27;1270554;-69
2021/06/30 23:15:39;;;;;;;3.25;2.22;;;;;;;;;;8419549;27;21112;-69
2021/06/30 23:19:53;;;;;;;3.15;2.00;;;;;;;;;;8377486;27;1248695;-68
2021/06/30 23:24:09;;;;;;;7.07;2.42;;;;;;;;;;8420407;27;20613;-69
2021/06/30 23:28:25;;;;;;;3.17;2.40;;;;;;;;;;8419902;27;20898;-68
2021/06/30 23:32:42;;;;;;;3.33;2.60;;;;;;;;;;8419745;27;20888;-69
2021/06/30 23:36:58;;;;;;;3.65;2.70;;;;;;;;;;8419709;27;20627;-69
2021/06/30 23:41:14;;;;;;;3.15;2.17;;;;;;;;;;8386615;27;21215;-68
2021/06/30 23:45:31;;;;;;;4.63;2.30;;;;;;;;;;8419503;27;20902;-68
2021/06/30 23:49:49;;;;;;;4.30;2.42;;;;;;;;;;8420588;27;20867;-69
2021/06/30 23:54:06;;;;;;;2.38;2.17;;;;;;;;;;8419680;27;21051;-68
2021/06/30 23:58:22;;;;;;;4.32;2.88;;;;;;;;;;8419634;27;20842;-69
